WAJJ/DJJ METAR and TAF weather

Enter ICAO airport designator
Station Type Date Time Source
WAJJ METAR 2022/09/26 09:00 UTC NOAA

WAJJ 260900Z 12005KT 9999 FEW014 30/21 Q1005 NOSIG


Station Type Date Time Source
WAJJ Decoded METAR 2022/09/26 09:00 UTC NOAA

Jayapura / Sentani, Indonesia (WAJJ) 02-34S 140-29E 99M
Sep 26, 2022 - 05:00 AM EDT / 2022.09.26 0900 UTC
Wind: from the ESE (120 degrees) at 6 MPH (5 KT):0
Visibility: greater than 7 mile(s):0
Sky conditions: mostly clear
Temperature: 86 F (30 C)
Dew Point: 69 F (21 C)
Relative Humidity: 58%
Pressure (altimeter): 29.68 in. Hg (1005 hPa)
ob: WAJJ 260900Z 12005KT 9999 FEW014 30/21 Q1005 NOSIG
cycle: 9

Station Type Date Time Source
WAJJ TAF 2013/03/11 12:00 UTC NOAA

TAF WAJJ 111100Z 1112/1212 29006KT 5000 HZ SCT016
TEMPO 1113/1121 4000 RA FEW014CB
BECMG 1200/1202 28012KT 9999
TEMPO 1207/1212 6000 RA FEW014CB

Example: see airport list